Time;durP1;ratioP1;P1;durP2;ratioP2;P2;SDS_P1;SDS_P2;PMS_P1;PMS_P2;Temp;Humidity;BMP_temperature;BMP_pressure;BME280_temperature;BME280_humidity;BME280_pressure;Samples;Min_cycle;Max_cycle;Signal;HPM_P1;HPM_P2
2021/10/15 00:01:26;;;;;;;21.80;14.40;;;;;;;12.30;48.54;101424.60;117339;1187;22151;-85
2021/10/15 00:03:54;;;;;;;21.80;14.60;;;;;;;12.29;48.58;101426.36;117513;1185;21882;-84
2021/10/15 00:06:22;;;;;;;20.70;15.40;;;;;;;12.28;48.57;101421.80;117535;1182;22206;-84
2021/10/15 00:08:50;;;;;;;24.10;15.50;;;;;;;12.27;48.63;101416.16;117585;1186;22167;-84
2021/10/15 00:11:18;;;;;;;19.90;15.00;;;;;;;12.27;48.58;101413.88;117405;1188;21872;-84
2021/10/15 00:13:47;;;;;;;21.60;15.80;;;;;;;12.27;48.66;101411.41;117412;1186;22200;-84
2021/10/15 00:16:15;;;;;;;23.00;15.80;;;;;;;12.28;48.77;101408.95;117676;1182;23536;-84
2021/10/15 00:18:43;;;;;;;20.50;15.80;;;;;;;12.28;48.66;101406.31;117664;1186;21877;-84
2021/10/15 00:21:11;;;;;;;19.70;14.90;;;;;;;12.29;48.64;101404.73;117554;1182;22896;-84
2021/10/15 00:23:39;;;;;;;20.70;15.30;;;;;;;12.28;48.55;101406.66;117556;1182;22283;-84
2021/10/15 00:26:07;;;;;;;21.20;14.20;;;;;;;12.27;48.47;101397.52;117380;1187;21883;-84
2021/10/15 00:28:35;;;;;;;18.60;13.10;;;;;;;12.27;48.66;101394.16;117500;1185;23220;-84
2021/10/15 00:31:04;;;;;;;17.00;13.40;;;;;;;12.24;48.64;101391.36;117509;1186;22437;-84
2021/10/15 00:33:32;;;;;;;16.30;13.20;;;;;;;12.23;48.57;101390.84;117530;1186;21883;-84
2021/10/15 00:36:00;;;;;;;17.30;13.20;;;;;;;12.22;48.68;101393.66;117484;1179;21965;-84
2021/10/15 00:38:28;;;;;;;18.40;14.40;;;;;;;12.20;48.60;101391.37;117301;1186;22988;-85
2021/10/15 00:40:56;;;;;;;18.70;13.90;;;;;;;12.18;48.78;101388.38;117332;1178;23458;-84
2021/10/15 00:43:25;;;;;;;19.60;14.60;;;;;;;12.18;48.55;101385.56;117390;1187;24616;-83
2021/10/15 00:45:53;;;;;;;20.00;14.90;;;;;;;12.17;48.73;101383.10;117395;1185;22944;-83
2021/10/15 00:48:21;;;;;;;18.80;14.00;;;;;;;12.18;48.64;101387.51;117611;1185;22912;-84
2021/10/15 00:50:49;;;;;;;18.40;15.10;;;;;;;12.17;48.41;101388.21;117523;1182;22909;-84
2021/10/15 00:53:18;;;;;;;19.70;14.50;;;;;;;12.15;48.45;101392.25;117269;1184;22910;-84
2021/10/15 00:55:46;;;;;;;20.00;16.30;;;;;;;12.14;48.69;101392.79;117629;1185;21863;-84
2021/10/15 00:58:14;;;;;;;21.20;15.50;;;;;;;12.12;48.59;101393.52;117699;1179;23435;-84
2021/10/15 01:00:43;;;;;;;23.10;15.00;;;;;;;12.14;48.75;101397.38;117671;1176;23551;-84
2021/10/15 01:03:11;;;;;;;20.10;16.00;;;;;;;12.12;48.76;101392.11;117650;1185;21898;-85
2021/10/15 01:05:39;;;;;;;21.10;16.20;;;;;;;12.12;48.70;101383.83;117366;1187;23563;-84
2021/10/15 01:08:08;;;;;;;21.70;16.20;;;;;;;12.12;48.81;101387.89;117591;1186;21855;-84
2021/10/15 01:10:36;;;;;;;25.50;16.10;;;;;;;12.12;48.62;101390.70;117644;1182;22897;-84
2021/10/15 01:13:04;;;;;;;21.20;15.90;;;;;;;12.12;48.64;101391.39;117369;1187;21922;-84
2021/10/15 01:15:47;;;;;;;20.60;16.00;;;;;;;12.13;48.64;101393.33;117277;1188;21864;-84
2021/10/15 01:18:15;;;;;;;20.30;14.80;;;;;;;12.14;48.87;101392.27;117318;1185;22647;-84
2021/10/15 01:20:48;;;;;;;20.60;16.40;;;;;;;12.14;48.65;101388.73;117402;1187;23576;-84
2021/10/15 01:23:16;;;;;;;21.20;15.80;;;;;;;12.16;48.74;101383.46;117368;1184;22912;-83
2021/10/15 01:25:44;;;;;;;22.40;17.10;;;;;;;12.18;48.75;101384.87;117463;1186;22155;-83
2021/10/15 01:28:13;;;;;;;20.50;16.30;;;;;;;12.18;48.74;101391.20;117603;1182;23539;-84
2021/10/15 01:30:42;;;;;;;23.10;16.00;;;;;;;12.17;48.83;101388.91;117652;1182;22607;-84
2021/10/15 01:33:10;;;;;;;19.70;15.30;;;;;;;12.16;48.90;101385.75;117605;1186;21876;-84
2021/10/15 01:35:38;;;;;;;19.50;15.60;;;;;;;12.18;48.84;101383.46;117647;1185;23538;-84
2021/10/15 01:38:06;;;;;;;19.50;15.70;;;;;;;12.19;48.94;101379.23;117611;1186;21960;-85
2021/10/15 01:40:37;;;;;;;21.90;15.70;;;;;;;12.19;48.74;101377.83;117665;1182;23652;-84
2021/10/15 01:43:05;;;;;;;22.60;16.60;;;;;;;12.19;48.78;101380.46;117645;1186;21856;-84
2021/10/15 01:45:33;;;;;;;20.10;15.50;;;;;;;12.20;48.88;101377.64;117594;1185;22619;-84
2021/10/15 01:48:01;;;;;;;20.10;15.30;;;;;;;12.19;48.82;101383.27;117516;1185;22941;-84
2021/10/15 01:50:30;;;;;;;20.50;15.20;;;;;;;12.21;48.67;101380.81;117289;1186;21899;-84
2021/10/15 01:52:58;;;;;;;20.20;15.30;;;;;;;12.22;48.93;101380.98;117532;1179;23462;-84
2021/10/15 01:55:26;;;;;;;21.80;15.70;;;;;;;12.22;48.74;101379.76;117285;1185;22916;-84
2021/10/15 01:57:55;;;;;;;20.90;14.90;;;;;;;12.23;48.71;101380.10;117613;1178;22833;-84
2021/10/15 02:00:23;;;;;;;18.90;14.90;;;;;;;12.23;48.88;101379.75;117422;1185;21856;-83
2021/10/15 02:02:51;;;;;;;18.70;14.10;;;;;;;12.23;48.76;101377.11;117360;1187;21857;-84
2021/10/15 02:05:20;;;;;;;20.70;15.30;;;;;;;12.24;48.85;101371.84;117605;1186;21857;-84
2021/10/15 02:07:48;;;;;;;19.80;14.70;;;;;;;12.24;49.03;101370.95;117608;1183;23390;-84
2021/10/15 02:10:16;;;;;;;18.80;14.70;;;;;;;12.26;48.90;101374.29;117553;1182;22160;-83
2021/10/15 02:12:44;;;;;;;18.90;13.60;;;;;;;12.26;48.81;101373.75;117552;1177;23435;-84
2021/10/15 02:15:13;;;;;;;22.30;14.90;;;;;;;12.25;48.93;101373.93;117315;1187;22288;-83
2021/10/15 02:17:41;;;;;;;18.90;14.60;;;;;;;12.25;48.85;101376.23;117559;1182;23540;-84
2021/10/15 02:20:11;;;;;;;18.90;14.70;;;;;;;12.26;49.02;101380.98;117499;1186;23460;-84
2021/10/15 02:22:44;;;;;;;20.80;14.60;;;;;;;12.26;48.97;101381.15;117321;1182;23907;-85
2021/10/15 02:25:14;;;;;;;17.90;14.40;;;;;;;12.27;48.95;101377.28;117305;1187;21846;-84
2021/10/15 02:27:42;;;;;;;18.80;15.00;;;;;;;12.28;48.94;101378.70;117616;1186;21864;-84
2021/10/15 02:30:11;;;;;;;18.00;14.00;;;;;;;12.29;48.97;101375.52;117337;1186;21980;-84
2021/10/15 02:32:40;;;;;;;23.10;15.70;;;;;;;12.30;48.96;101376.74;117455;1186;22283;-84
2021/10/15 02:35:08;;;;;;;19.40;15.10;;;;;;;12.31;48.94;101376.21;117533;1185;23210;-84
2021/10/15 02:37:39;;;;;;;20.00;14.70;;;;;;;12.32;49.08;101380.25;117383;1185;23542;-84
2021/10/15 02:40:09;;;;;;;17.60;14.50;;;;;;;12.35;48.95;101378.31;117532;1182;22143;-84
2021/10/15 02:42:37;;;;;;;18.80;13.90;;;;;;;12.37;49.05;101376.54;117485;1182;21909;-84
2021/10/15 02:45:05;;;;;;;20.30;14.80;;;;;;;12.39;48.91;101371.08;117343;1188;21857;-84
2021/10/15 02:47:34;;;;;;;18.20;14.30;;;;;;;12.39;48.88;101371.06;117490;1178;23602;-83
2021/10/15 02:50:04;;;;;;;18.00;14.60;;;;;;;12.40;49.06;101374.05;117542;1185;22955;-83
2021/10/15 02:52:32;;;;;;;17.90;14.30;;;;;;;12.39;48.95;101373.00;117596;1186;21867;-83
2021/10/15 02:55:01;;;;;;;18.80;14.10;;;;;;;12.38;49.00;101377.06;117645;1185;23542;-83
2021/10/15 02:57:32;;;;;;;18.30;14.20;;;;;;;12.37;48.87;101380.92;117623;1182;23541;-83
2021/10/15 03:00:01;;;;;;;17.50;13.90;;;;;;;12.42;48.98;101377.23;117645;1178;21861;-84
2021/10/15 03:02:30;;;;;;;18.70;14.20;;;;;;;12.37;48.97;101378.98;117586;1186;21882;-84
2021/10/15 03:04:58;;;;;;;18.90;14.00;;;;;;;12.36;48.99;101385.17;117562;1182;22835;-83
2021/10/15 03:07:27;;;;;;;20.30;14.50;;;;;;;12.35;48.92;101386.76;117553;1186;22821;-83
2021/10/15 03:09:55;;;;;;;18.00;14.30;;;;;;;12.34;48.92;101395.39;117542;1186;21859;-84
2021/10/15 03:12:23;;;;;;;17.80;14.30;;;;;;;12.35;48.90;101396.27;117289;1186;23437;-84
2021/10/15 03:15:06;;;;;;;18.00;13.90;;;;;;;12.36;48.98;101390.80;117342;1178;23560;-84
2021/10/15 03:17:35;;;;;;;17.40;14.30;;;;;;;12.40;48.84;101391.13;117410;1186;23672;-85
2021/10/15 03:20:04;;;;;;;18.30;12.80;;;;;;;12.38;48.88;101386.56;117396;1185;22914;-83
2021/10/15 03:22:35;;;;;;;19.30;13.40;;;;;;;12.35;48.97;101389.04;117653;1181;23554;-84
2021/10/15 03:25:04;;;;;;;19.80;13.40;;;;;;;12.34;48.93;101389.40;117604;1186;21863;-83
2021/10/15 03:27:32;;;;;;;18.90;13.00;;;;;;;12.35;48.87;101383.60;117414;1185;21928;-84
2021/10/15 03:30:00;;;;;;;16.30;12.60;;;;;;;12.36;49.02;101384.82;117588;1185;21882;-84
2021/10/15 03:32:28;;;;;;;21.50;14.10;;;;;;;12.37;49.02;101387.44;117568;1185;22909;-84
2021/10/15 03:34:56;;;;;;;16.70;12.60;;;;;;;12.38;48.96;101382.70;117568;1183;22909;-84
2021/10/15 03:37:24;;;;;;;20.60;12.90;;;;;;;12.41;49.17;101380.92;117533;1186;22975;-83
2021/10/15 03:39:53;;;;;;;17.70;12.60;;;;;;;12.42;49.22;101378.80;117470;1182;23482;-84
2021/10/15 03:42:21;;;;;;;19.10;13.80;;;;;;;12.43;49.14;101380.91;117554;1182;23553;-84
2021/10/15 03:44:50;;;;;;;16.50;12.90;;;;;;;12.45;49.11;101386.02;117411;1185;23549;-86
2021/10/15 03:47:18;;;;;;;17.30;13.00;;;;;;;12.47;49.11;101389.70;117622;1184;23651;-86
2021/10/15 03:49:46;;;;;;;18.90;14.20;;;;;;;12.49;49.07;101389.52;117604;1183;22950;-86
2021/10/15 03:52:14;;;;;;;17.20;14.40;;;;;;;12.52;49.17;101391.09;117480;1179;23436;-85
2021/10/15 03:54:42;;;;;;;17.60;14.10;;;;;;;12.53;49.11;101390.90;117473;1185;21862;-86
2021/10/15 03:57:11;;;;;;;19.40;13.50;;;;;;;12.53;49.26;101400.93;117237;1184;22150;-86
2021/10/15 03:59:39;;;;;;;17.80;13.20;;;;;;;12.53;49.26;101404.45;117487;1186;21864;-85
2021/10/15 04:02:07;;;;;;;19.10;14.80;;;;;;;12.55;49.19;101409.21;117212;1187;21843;-86
2021/10/15 04:04:36;;;;;;;20.10;13.80;;;;;;;12.56;49.25;101411.51;117569;1182;23669;-86
2021/10/15 04:07:04;;;;;;;16.10;13.80;;;;;;;12.58;49.30;101415.00;117355;1188;23564;-86
2021/10/15 04:09:32;;;;;;;15.80;13.10;;;;;;;12.60;49.31;101418.86;117490;1186;23553;-86
2021/10/15 04:12:01;;;;;;;16.10;13.10;;;;;;;12.60;49.18;101422.21;117391;1186;22261;-85
2021/10/15 04:14:29;;;;;;;19.10;13.60;;;;;;;12.60;49.29;101420.63;117683;1185;23542;-85
2021/10/15 04:16:58;;;;;;;21.70;13.30;;;;;;;12.61;49.27;101423.61;117413;1182;22340;-83
2021/10/15 04:19:26;;;;;;;22.80;13.90;;;;;;;12.62;49.36;101423.79;117595;1185;21852;-83
2021/10/15 04:21:54;;;;;;;21.30;13.00;;;;;;;12.63;49.28;101424.13;117426;1185;23881;-83
2021/10/15 04:24:22;;;;;;;20.40;13.20;;;;;;;12.65;49.25;101422.90;117402;1185;21895;-83
2021/10/15 04:26:50;;;;;;;22.20;12.70;;;;;;;12.68;49.30;101430.47;117446;1187;23809;-84
2021/10/15 04:29:18;;;;;;;17.70;13.00;;;;;;;12.70;49.38;101433.45;117439;1187;22511;-84
2021/10/15 04:31:47;;;;;;;19.00;12.20;;;;;;;12.72;49.29;101430.63;117456;1187;22513;-83
2021/10/15 04:34:15;;;;;;;16.90;12.50;;;;;;;12.72;49.13;101427.27;117557;1184;22896;-85
2021/10/15 04:36:43;;;;;;;19.40;12.90;;;;;;;12.74;49.33;101422.16;117399;1182;22305;-82
2021/10/15 04:39:11;;;;;;;21.20;12.70;;;;;;;12.77;49.41;101420.73;117347;1187;21921;-83
2021/10/15 04:41:39;;;;;;;18.90;12.60;;;;;;;12.79;49.31;101424.78;117546;1179;21861;-83
2021/10/15 04:44:08;;;;;;;25.40;13.70;;;;;;;12.81;49.34;101423.52;117656;1183;22590;-83
2021/10/15 04:46:44;;;;;;;23.10;13.60;;;;;;;12.82;49.35;101420.34;117445;1184;22967;-84
2021/10/15 04:49:12;;;;;;;22.40;14.10;;;;;;;12.83;49.39;101415.77;117449;1181;21876;-84
2021/10/15 04:51:41;;;;;;;20.30;13.20;;;;;;;12.84;49.43;101416.65;117771;1182;21867;-84
2021/10/15 04:54:09;;;;;;;18.00;13.00;;;;;;;12.85;49.24;101421.58;117551;1184;22645;-84
2021/10/15 04:56:37;;;;;;;20.30;14.40;;;;;;;12.86;49.38;101429.14;117648;1186;23544;-84
2021/10/15 04:59:05;;;;;;;18.60;13.00;;;;;;;12.87;49.26;101432.48;117550;1179;23486;-83
2021/10/15 05:01:34;;;;;;;16.40;13.40;;;;;;;12.88;49.33;101432.30;117357;1184;23586;-83
2021/10/15 05:04:02;;;;;;;18.40;13.40;;;;;;;12.89;49.41;101435.11;117413;1183;22929;-85
2021/10/15 05:06:30;;;;;;;17.30;13.30;;;;;;;12.91;49.32;101433.70;117331;1188;21869;-85
2021/10/15 05:11:37;;;;;;;19.60;13.40;;;;;;;12.97;49.41;101428.91;117473;1182;23563;-85
2021/10/15 05:14:06;;;;;;;17.90;13.20;;;;;;;13.01;49.31;101426.43;117520;1186;21872;-85
2021/10/15 05:16:34;;;;;;;16.70;12.10;;;;;;;13.04;49.43;101424.46;117589;1186;23560;-84
2021/10/15 05:19:02;;;;;;;17.90;13.90;;;;;;;13.09;49.50;101424.44;117561;1185;23553;-87
2021/10/15 05:21:31;;;;;;;21.00;13.50;;;;;;;13.11;49.43;101425.13;117638;1182;23538;-84
2021/10/15 05:23:59;;;;;;;23.30;13.50;;;;;;;13.14;49.45;101425.12;117611;1186;21847;-84
2021/10/15 05:26:27;;;;;;;18.50;13.40;;;;;;;13.20;49.48;101423.14;117553;1185;22904;-84
2021/10/15 05:28:55;;;;;;;17.50;13.30;;;;;;;13.24;49.48;101425.94;117369;1187;22911;-84
2021/10/15 05:31:23;;;;;;;22.10;13.40;;;;;;;13.30;49.60;101425.54;117546;1186;21858;-84
2021/10/15 05:33:52;;;;;;;20.40;13.50;;;;;;;13.33;49.56;101422.16;117536;1182;23564;-84
2021/10/15 05:36:20;;;;;;;22.50;13.50;;;;;;;13.38;49.62;101421.43;117407;1187;21850;-84
2021/10/15 05:38:48;;;;;;;22.50;13.60;;;;;;;13.44;49.67;101418.44;117631;1186;21881;-84
2021/10/15 05:41:16;;;;;;;16.70;13.30;;;;;;;13.49;49.74;101420.67;117540;1182;23541;-81
2021/10/15 05:43:45;;;;;;;20.30;13.90;;;;;;;13.56;49.59;101422.91;117574;1185;23005;-85
2021/10/15 05:46:13;;;;;;;16.60;12.60;;;;;;;13.61;49.59;101423.05;117628;1186;21858;-83
2021/10/15 05:48:41;;;;;;;17.40;13.30;;;;;;;13.67;49.68;101424.05;117535;1183;22912;-83
2021/10/15 05:51:10;;;;;;;19.10;13.70;;;;;;;13.73;49.73;101425.77;117514;1185;21874;-84
2021/10/15 05:53:38;;;;;;;19.60;14.00;;;;;;;13.77;49.55;101432.96;117620;1186;21858;-84
2021/10/15 05:59:03;;;;;;;20.50;14.80;;;;;;;13.84;49.65;101440.14;117696;1186;21860;-84
2021/10/15 06:01:33;;;;;;;17.70;13.20;;;;;;;13.87;49.66;101439.06;117580;1186;21891;-86
2021/10/15 06:14:36;;;;;;;20.60;13.50;;;;;;;14.21;49.81;101425.48;117569;1183;22644;-87
2021/10/15 06:17:10;;;;;;;17.40;14.40;;;;;;;14.31;49.85;101420.45;117598;1183;21872;-85
2021/10/15 06:19:53;;;;;;;20.30;14.30;;;;;;;14.40;49.88;101419.09;117619;1183;23541;-86
2021/10/15 06:22:25;;;;;;;20.70;14.50;;;;;;;14.51;49.92;101418.80;117379;1188;21847;-85
2021/10/15 06:24:56;;;;;;;20.80;13.90;;;;;;;14.60;49.84;101420.27;117384;1185;23312;-85
2021/10/15 06:27:24;;;;;;;22.30;13.40;;;;;;;14.68;49.95;101418.06;117694;1186;23541;-85
2021/10/15 06:29:53;;;;;;;22.50;13.70;;;;;;;14.78;49.86;101417.09;117425;1187;21883;-86
2021/10/15 06:32:22;;;;;;;16.50;13.40;;;;;;;14.84;49.86;101418.57;117619;1184;22810;-86
2021/10/15 06:34:50;;;;;;;16.30;14.00;;;;;;;14.91;49.81;101412.66;117655;1186;21857;-85
2021/10/15 06:37:18;;;;;;;18.50;12.80;;;;;;;14.98;49.91;101408.33;117418;1186;21880;-86
2021/10/15 06:39:52;;;;;;;18.70;13.00;;;;;;;15.04;49.88;101404.87;117537;1186;21876;-86
2021/10/15 06:42:20;;;;;;;18.60;14.90;;;;;;;15.10;49.93;101397.36;117523;1183;21860;-86
2021/10/15 06:44:48;;;;;;;19.00;13.60;;;;;;;15.17;49.91;101397.45;117511;1185;21865;-85
2021/10/15 06:47:16;;;;;;;19.00;14.60;;;;;;;15.25;49.93;101393.42;117497;1183;22912;-85
2021/10/15 06:49:45;;;;;;;18.60;13.90;;;;;;;15.31;49.96;101394.21;117610;1185;21891;-85
2021/10/15 06:52:13;;;;;;;17.10;14.50;;;;;;;15.37;49.98;101394.48;117654;1180;21851;-85
2021/10/15 06:54:42;;;;;;;17.80;14.30;;;;;;;15.44;49.95;101389.23;117632;1185;23579;-85
2021/10/15 06:57:10;;;;;;;15.30;13.10;;;;;;;15.51;49.90;101388.95;117591;1185;23529;-85
2021/10/15 06:59:39;;;;;;;17.60;13.30;;;;;;;15.55;49.93;101387.64;117610;1186;23554;-85
2021/10/15 07:02:07;;;;;;;18.20;14.70;;;;;;;15.60;49.88;101387.38;117444;1186;21845;-84
2021/10/15 07:04:36;;;;;;;18.90;13.70;;;;;;;15.66;49.92;101386.21;117626;1185;22918;-86
2021/10/15 07:07:05;;;;;;;17.90;14.10;;;;;;;15.73;49.92;101386.27;117440;1186;23793;-86
2021/10/15 07:09:33;;;;;;;18.90;13.70;;;;;;;15.80;49.93;101387.20;117624;1186;21871;-86
2021/10/15 07:12:21;;;;;;;16.80;14.30;;;;;;;15.88;49.86;101390.64;117621;1186;23542;-86
2021/10/15 07:14:49;;;;;;;15.90;13.10;;;;;;;15.93;49.87;101386.83;117606;1186;23301;-86
2021/10/15 07:17:17;;;;;;;16.70;13.80;;;;;;;15.99;49.92;101387.42;117437;1187;21862;-86
2021/10/15 07:19:45;;;;;;;17.20;14.10;;;;;;;16.04;49.94;101386.80;117662;1185;21853;-86
2021/10/15 07:22:13;;;;;;;17.30;13.40;;;;;;;16.05;50.00;101382.89;117617;1185;21856;-86
2021/10/15 07:24:41;;;;;;;18.80;14.00;;;;;;;16.09;50.09;101379.10;117670;1185;21851;-86
2021/10/15 07:27:09;;;;;;;15.30;13.30;;;;;;;16.13;49.98;101379.71;117491;1186;23434;-86
2021/10/15 07:29:37;;;;;;;16.90;12.90;;;;;;;16.17;50.01;101378.75;117507;1186;21913;-86
2021/10/15 07:32:06;;;;;;;15.00;12.50;;;;;;;16.21;50.04;101380.27;117500;1184;22909;-85
2021/10/15 07:34:34;;;;;;;16.10;13.20;;;;;;;16.27;50.01;101376.79;117483;1182;23631;-85
2021/10/15 07:37:02;;;;;;;16.30;13.10;;;;;;;16.32;49.97;101377.40;117416;1188;23635;-85
2021/10/15 07:39:30;;;;;;;18.00;13.20;;;;;;;16.38;50.04;101374.44;117542;1186;21858;-85
2021/10/15 07:41:59;;;;;;;15.40;12.80;;;;;;;16.45;50.00;101369.17;117680;1180;22964;-85
2021/10/15 07:44:27;;;;;;;15.10;13.20;;;;;;;16.54;50.07;101361.55;117611;1186;23541;-85
2021/10/15 07:46:55;;;;;;;20.40;13.20;;;;;;;16.62;50.11;101356.21;117393;1188;22932;-85
2021/10/15 07:49:23;;;;;;;16.10;13.20;;;;;;;16.71;50.14;101354.09;117584;1184;22109;-82
2021/10/15 07:51:51;;;;;;;16.20;12.90;;;;;;;16.79;50.15;101356.02;117537;1186;22645;-82
2021/10/15 07:54:20;;;;;;;16.60;13.60;;;;;;;16.91;50.21;101352.04;117586;1183;23574;-85
2021/10/15 07:56:48;;;;;;;15.90;14.00;;;;;;;17.04;50.25;101350.34;117517;1183;23541;-85
2021/10/15 07:59:17;;;;;;;15.60;12.90;;;;;;;17.18;50.22;101349.30;117546;1185;23541;-84
2021/10/15 08:01:45;;;;;;;16.10;13.20;;;;;;;17.32;50.24;101348.08;117561;1184;21857;-83
2021/10/15 08:04:13;;;;;;;15.20;12.50;;;;;;;17.44;50.29;101350.06;117517;1186;21880;-84
2021/10/15 08:06:49;;;;;;;15.20;12.90;;;;;;;17.56;50.26;101350.48;117532;1186;21903;-83
2021/10/15 08:09:18;;;;;;;17.50;12.50;;;;;;;17.69;50.33;101350.33;117579;1186;22849;-82
2021/10/15 08:11:47;;;;;;;17.00;13.80;;;;;;;17.81;50.32;101348.05;117578;1182;22929;-83
2021/10/15 08:14:18;;;;;;;16.40;13.30;;;;;;;17.97;50.26;101346.57;117396;1185;23542;-83
2021/10/15 08:16:47;;;;;;;14.40;12.60;;;;;;;18.17;50.43;101350.45;117568;1186;21880;-83
2021/10/15 08:19:35;;;;;;;12.50;11.20;;;;;;;18.36;50.23;101342.80;117440;1186;21866;-83
2021/10/15 08:22:04;;;;;;;14.90;12.00;;;;;;;18.44;50.05;101343.29;117540;1185;22301;-83
2021/10/15 08:24:33;;;;;;;15.30;12.80;;;;;;;18.47;49.99;101341.08;117469;1183;24895;-84
2021/10/15 08:27:01;;;;;;;13.20;11.40;;;;;;;18.50;49.92;101340.10;117278;1188;21858;-83
2021/10/15 08:29:31;;;;;;;17.60;12.20;;;;;;;18.52;49.94;101349.09;117507;1185;23633;-83
2021/10/15 08:31:59;;;;;;;14.30;12.00;;;;;;;18.53;49.71;101347.81;117562;1179;23436;-83
2021/10/15 08:34:28;;;;;;;16.50;12.10;;;;;;;18.52;49.61;101352.84;117463;1183;22634;-83
2021/10/15 08:36:57;;;;;;;13.50;11.40;;;;;;;18.50;49.52;101349.34;117591;1182;21850;-83
2021/10/15 08:39:28;;;;;;;15.10;12.30;;;;;;;18.49;49.53;101347.06;117633;1182;21973;-83
2021/10/15 08:41:57;;;;;;;13.10;11.10;;;;;;;18.51;49.61;101349.49;117640;1182;21858;-84
2021/10/15 08:44:37;;;;;;;13.60;12.10;;;;;;;18.50;49.51;101348.98;117485;1183;21867;-83
2021/10/15 08:47:05;;;;;;;16.40;11.50;;;;;;;18.52;49.57;101345.91;117519;1185;21870;-83
2021/10/15 08:49:54;;;;;;;13.00;11.00;;;;;;;18.54;49.62;101346.35;117521;1185;22902;-83
2021/10/15 08:52:22;;;;;;;13.60;11.20;;;;;;;18.55;49.80;101343.33;117405;1188;21869;-82
2021/10/15 08:54:53;;;;;;;16.50;12.40;;;;;;;18.63;49.77;101347.88;117387;1187;22304;-82
2021/10/15 08:57:21;;;;;;;13.80;11.40;;;;;;;18.75;49.85;101354.45;117614;1185;23475;-82
2021/10/15 08:59:51;;;;;;;13.40;11.40;;;;;;;18.85;49.84;101361.05;117464;1186;23438;-82
2021/10/15 09:02:20;;;;;;;13.80;11.00;;;;;;;18.93;49.77;101362.63;117646;1186;21858;-83
2021/10/15 09:04:54;;;;;;;13.50;11.30;;;;;;;18.98;49.69;101357.51;117578;1182;22203;-82
2021/10/15 09:07:24;;;;;;;12.70;10.90;;;;;;;18.99;49.62;101358.35;117555;1182;23561;-82
2021/10/15 09:10:10;;;;;;;12.10;9.70;;;;;;;19.01;49.60;101354.89;117555;1179;21848;-83
2021/10/15 09:12:46;;;;;;;12.70;10.50;;;;;;;19.01;49.59;101353.84;117691;1179;21867;-83
2021/10/15 09:15:16;;;;;;;11.70;10.00;;;;;;;18.99;49.48;101349.08;117655;1183;23582;-83
2021/10/15 09:17:52;;;;;;;11.60;9.60;;;;;;;19.00;49.56;101347.45;117589;1182;23540;-83
2021/10/15 09:20:27;;;;;;;12.20;10.80;;;;;;;19.00;49.46;101349.77;117476;1186;22283;-83
2021/10/15 09:23:12;;;;;;;13.90;10.40;;;;;;;18.99;49.45;101346.77;117644;1182;23881;-83
2021/10/15 09:25:42;;;;;;;14.80;10.80;;;;;;;18.97;49.36;101339.73;117348;1186;21922;-83
2021/10/15 09:28:18;;;;;;;12.80;10.60;;;;;;;18.97;49.34;101340.99;117548;1185;21857;-83
2021/10/15 09:30:51;;;;;;;12.70;10.40;;;;;;;18.97;49.33;101346.15;117554;1182;23539;-83
2021/10/15 09:33:19;;;;;;;13.60;10.80;;;;;;;18.96;49.38;101353.29;117548;1179;21865;-82
2021/10/15 09:35:49;;;;;;;13.20;10.90;;;;;;;18.94;49.21;101356.17;117315;1186;21851;-82
2021/10/15 09:38:25;;;;;;;12.80;11.30;;;;;;;18.92;49.31;101351.25;117419;1179;23491;-83
2021/10/15 09:40:54;;;;;;;15.30;10.90;;;;;;;18.88;49.33;101352.25;117494;1187;21856;-83
2021/10/15 09:43:35;;;;;;;12.00;10.70;;;;;;;18.89;49.26;101339.24;117715;1180;23540;-83
2021/10/15 09:46:03;;;;;;;13.10;10.90;;;;;;;18.89;49.32;101334.06;117595;1183;22675;-82
2021/10/15 09:48:36;;;;;;;13.30;10.70;;;;;;;18.94;49.37;101334.67;117551;1185;22823;-83
2021/10/15 09:51:09;;;;;;;13.20;11.80;;;;;;;18.99;49.36;101336.48;117435;1188;23295;-83
2021/10/15 09:53:40;;;;;;;13.90;11.30;;;;;;;19.04;49.37;101335.95;117579;1186;22370;-83
2021/10/15 09:56:08;;;;;;;12.30;10.60;;;;;;;19.09;49.34;101336.52;117390;1179;21900;-84
2021/10/15 09:58:36;;;;;;;15.70;12.00;;;;;;;19.15;49.24;101342.54;117644;1182;23531;-82
2021/10/15 10:01:04;;;;;;;15.10;12.00;;;;;;;19.20;49.19;101345.40;117637;1185;21876;-83
2021/10/15 10:03:32;;;;;;;13.70;12.20;;;;;;;19.23;49.12;101339.81;117453;1179;22275;-83
2021/10/15 10:06:01;;;;;;;15.40;13.00;;;;;;;19.25;49.07;101328.52;117498;1185;22817;-82
2021/10/15 10:08:29;;;;;;;15.20;12.90;;;;;;;19.30;48.99;101323.19;117607;1182;23645;-83
2021/10/15 10:10:58;;;;;;;19.20;14.00;;;;;;;19.36;49.06;101329.75;117440;1182;23563;-83
2021/10/15 10:13:26;;;;;;;16.10;12.70;;;;;;;19.41;49.01;101324.95;117434;1188;23620;-82
2021/10/15 10:15:54;;;;;;;22.90;12.90;;;;;;;19.50;49.15;101324.45;117456;1185;21857;-83
2021/10/15 10:18:29;;;;;;;15.00;12.00;;;;;;;19.61;49.12;101322.49;117601;1186;21867;-83
2021/10/15 10:21:12;;;;;;;14.90;13.10;;;;;;;19.74;49.23;101318.65;117582;1186;21858;-83
2021/10/15 10:23:50;;;;;;;16.30;13.20;;;;;;;19.91;49.32;101316.80;117577;1182;23545;-83
2021/10/15 10:26:27;;;;;;;14.00;12.20;;;;;;;20.08;49.31;101316.19;117499;1186;22258;-83
2021/10/15 10:29:00;;;;;;;16.50;13.40;;;;;;;20.23;49.19;101318.70;117439;1183;22916;-82
2021/10/15 10:31:28;;;;;;;13.60;12.10;;;;;;;20.31;49.09;101322.27;117523;1186;21861;-83
2021/10/15 10:34:04;;;;;;;16.00;12.40;;;;;;;20.39;49.16;101323.61;117455;1183;22979;-82
2021/10/15 10:36:37;;;;;;;14.90;13.00;;;;;;;20.44;48.92;101324.29;117609;1186;22923;-83
2021/10/15 10:39:20;;;;;;;14.60;11.60;;;;;;;20.47;48.82;101326.66;117688;1183;21872;-82
2021/10/15 10:42:08;;;;;;;13.30;11.90;;;;;;;20.44;48.80;101326.27;117637;1183;22708;-82
2021/10/15 10:44:49;;;;;;;13.30;11.80;;;;;;;20.42;48.83;101320.98;117611;1184;22326;-83
2021/10/15 10:47:17;;;;;;;13.30;11.30;;;;;;;20.43;48.71;101317.77;117610;1183;22912;-83
2021/10/15 10:50:02;;;;;;;12.80;11.30;;;;;;;20.41;48.61;101316.55;117657;1185;22613;-83
2021/10/15 10:52:35;;;;;;;12.30;11.00;;;;;;;20.39;48.59;101318.23;117524;1186;23029;-83
2021/10/15 10:55:04;;;;;;;12.40;10.30;;;;;;;20.37;48.58;101320.65;117513;1183;22896;-83
2021/10/15 10:57:40;;;;;;;12.40;10.70;;;;;;;20.32;48.46;101315.49;117662;1185;22321;-83
2021/10/15 11:00:19;;;;;;;12.00;10.70;;;;;;;20.21;48.36;101312.34;117620;1182;23537;-84
2021/10/15 11:02:53;;;;;;;14.90;10.60;;;;;;;20.11;48.38;101304.34;117500;1183;22967;-83
2021/10/15 11:05:39;;;;;;;12.80;10.60;;;;;;;20.07;48.33;101308.96;117481;1185;21861;-83
2021/10/15 11:08:24;;;;;;;12.60;11.10;;;;;;;19.97;48.21;101309.30;117692;1183;23816;-84
2021/10/15 11:11:22;;;;;;;11.80;10.20;;;;;;;19.92;48.42;101308.60;117547;1186;23627;-84
2021/10/15 11:13:50;;;;;;;14.90;10.90;;;;;;;19.99;48.57;101309.79;117603;1186;21861;-84
2021/10/15 11:16:21;;;;;;;13.00;11.20;;;;;;;20.03;48.52;101310.52;117650;1185;23541;-84
2021/10/15 11:18:49;;;;;;;12.30;10.00;;;;;;;20.03;48.47;101315.86;117617;1179;21861;-84
2021/10/15 11:21:20;;;;;;;13.60;10.00;;;;;;;19.99;48.31;101316.17;117291;1188;21967;-84
2021/10/15 11:23:48;;;;;;;13.90;10.20;;;;;;;19.92;48.30;101321.59;117522;1185;22648;-83
2021/10/15 11:26:16;;;;;;;12.40;10.40;;;;;;;19.88;48.32;101320.30;117447;1186;21911;-84
2021/10/15 11:28:45;;;;;;;12.20;10.00;;;;;;;19.83;48.34;101314.42;117552;1182;23461;-83
2021/10/15 11:31:13;;;;;;;11.80;9.50;;;;;;;19.76;48.23;101308.98;117579;1185;21853;-83